Kasimov, Russia
Current Conditions -  °F | °C
As of 10:00 AM on Sunday 26 Oct 2014 (Local Time) from UWGG Reporting Station
Broken Clouds Broken Clouds  
Wind Chill: 13°   Ceiling: 23000
Heat Index: 21°   Visibility: 6mi
Dew Point: 12°   Wind: 7mph
Humidity: 68%   Direction: 170°S
Pressure: 30.59"   Gusts: NA
Location:  54.94°N, 41.39°E
Report Text: UWGG 260700Z 17003MPS 9000 SCT100 BKN230 M06/M11 Q1036 NOSIG18820050 RMK QFE770
Loading
Personal Weather Stations






























Interactive Weather Map
Tropical Storm Tracking
New forecast layout! Learn more

10-Day Weather Forecast

Advertisements
Track Severe Weather on mobile